Time;durP1;ratioP1;P1;durP2;ratioP2;P2;SDS_P1;SDS_P2;PMS_P1;PMS_P2;Temp;Humidity;BMP_temperature;BMP_pressure;BME280_temperature;BME280_humidity;BME280_pressure;Samples;Min_cycle;Max_cycle;Signal;HPM_P1;HPM_P2
2022/10/26 00:01:09;;;;;;;24.08;22.13;;;17.40;99.30;;;;;;5048837;28;20045;-85
2022/10/26 00:03:35;;;;;;;24.73;23.13;;;17.40;99.50;;;;;;5049496;28;20033;-85
2022/10/26 00:06:09;;;;;;;24.67;22.98;;;17.40;99.50;;;;;;5033670;28;20029;-85
2022/10/26 00:08:35;;;;;;;24.88;23.17;;;17.40;99.50;;;;;;5050105;28;20036;-85
2022/10/26 00:11:01;;;;;;;24.67;22.90;;;17.50;99.50;;;;;;5033194;28;20040;-85
2022/10/26 00:13:27;;;;;;;25.08;22.75;;;17.50;99.30;;;;;;5032695;28;20036;-85
2022/10/26 00:15:53;;;;;;;25.83;23.73;;;17.50;99.20;;;;;;5039020;28;20037;-84
2022/10/26 00:18:20;;;;;;;25.95;24.10;;;17.50;99.40;;;;;;5020032;28;20466;-85
2022/10/26 00:20:46;;;;;;;27.13;25.25;;;17.30;99.70;;;;;;5010577;28;20045;-84
2022/10/26 00:23:12;;;;;;;28.17;26.33;;;17.30;99.70;;;;;;5036199;28;20053;-84
2022/10/26 00:25:38;;;;;;;25.67;23.60;;;17.20;99.80;;;;;;5056679;28;20392;-84
2022/10/26 00:28:04;;;;;;;26.17;24.15;;;17.20;99.90;;;;;;5055995;28;20032;-84
2022/10/26 00:30:30;;;;;;;24.20;22.65;;;17.20;99.90;;;;;;5040364;28;20048;-85
2022/10/26 00:32:56;;;;;;;29.83;27.73;;;17.20;99.90;;;;;;5056760;28;20032;-85
2022/10/26 00:35:22;;;;;;;29.27;27.27;;;17.20;99.90;;;;;;5004660;28;20048;-84
2022/10/26 00:37:53;;;;;;;30.00;27.92;;;17.20;99.90;;;;;;5044474;28;20452;-85
2022/10/26 00:40:19;;;;;;;31.13;28.73;;;17.30;99.90;;;;;;5004230;28;20041;-85
2022/10/26 00:42:45;;;;;;;29.98;27.88;;;17.20;99.90;;;;;;5066187;28;20425;-85
2022/10/26 00:45:25;;;;;;;27.60;25.45;;;17.30;99.80;;;;;;5022532;28;20051;-85
2022/10/26 00:47:55;;;;;;;27.98;26.23;;;17.30;99.80;;;;;;5023196;28;20040;-85
2022/10/26 00:50:39;;;;;;;31.13;28.50;;;17.30;99.60;;;;;;5020358;28;20049;-85
2022/10/26 00:53:05;;;;;;;32.38;30.02;;;17.30;99.80;;;;;;5019589;28;20828;-85
2022/10/26 00:55:33;;;;;;;31.48;29.20;;;17.30;99.90;;;;;;5039202;28;20053;-85
2022/10/26 00:58:00;;;;;;;33.00;30.92;;;17.20;99.90;;;;;;5055865;28;20024;-85
2022/10/26 01:00:26;;;;;;;31.65;29.35;;;17.10;99.90;;;;;;5021689;28;20039;-84
2022/10/26 01:02:53;;;;;;;29.55;27.52;;;17.10;99.90;;;;;;5039531;28;20031;-85
2022/10/26 01:05:19;;;;;;;28.40;25.98;;;17.00;99.90;;;;;;5022828;28;20044;-85
2022/10/26 01:07:45;;;;;;;27.75;25.75;;;16.90;99.90;;;;;;5039935;28;20032;-85
2022/10/26 01:10:12;;;;;;;25.83;23.88;;;16.90;99.90;;;;;;5022550;28;20493;-85
2022/10/26 01:12:38;;;;;;;25.75;23.63;;;16.90;99.90;;;;;;5040433;28;20020;-85
2022/10/26 01:15:05;;;;;;;25.27;23.38;;;16.90;99.90;;;;;;5054268;28;20044;-85
2022/10/26 01:17:54;;;;;;;25.55;23.42;;;17.00;99.90;;;;;;5055022;28;20021;-85
2022/10/26 01:20:32;;;;;;;22.75;20.75;;;17.10;99.90;;;;;;5055572;28;20495;-84
2022/10/26 01:23:13;;;;;;;22.33;20.65;;;17.10;99.90;;;;;;5073497;28;20028;-85
2022/10/26 01:25:41;;;;;;;20.90;19.27;;;17.20;99.90;;;;;;5037019;28;20063;-84
2022/10/26 01:28:32;;;;;;;20.45;18.45;;;17.20;99.90;;;;;;5039655;28;20055;-85
2022/10/26 01:30:58;;;;;;;;;;;17.20;99.90;;;;;;4996920;28;20033;-85
2022/10/26 01:33:32;;;;;;;20.23;18.23;;;17.10;99.90;;;;;;4995291;28;19912;-84
2022/10/26 01:36:31;;;;;;;19.77;17.85;;;17.10;99.90;;;;;;4993166;28;20510;-85
2022/10/26 01:39:18;;;;;;;21.90;19.73;;;17.10;99.90;;;;;;5010871;28;20137;-85
2022/10/26 01:41:49;;;;;;;22.40;20.23;;;17.00;99.90;;;;;;4995683;28;20387;-85
2022/10/26 01:44:22;;;;;;;22.75;20.48;;;17.10;99.90;;;;;;4978808;28;20064;-85
2022/10/26 01:46:49;;;;;;;23.25;21.40;;;17.10;99.90;;;;;;4993678;28;20034;-85
2022/10/26 01:49:16;;;;;;;24.55;22.25;;;17.00;99.90;;;;;;4978843;28;20545;-85
2022/10/26 01:51:42;;;;;;;26.42;24.02;;;17.00;99.90;;;;;;5010721;28;20038;-85
2022/10/26 01:54:09;;;;;;;25.95;23.63;;;17.00;99.90;;;;;;4999436;28;20029;-85
2022/10/26 01:56:42;;;;;;;26.23;24.25;;;17.10;99.90;;;;;;5011407;28;20046;-85
2022/10/26 01:59:38;;;;;;;26.80;24.20;;;17.10;99.90;;;;;;4978716;28;20186;-85
2022/10/26 02:02:11;;;;;;;27.42;25.10;;;17.20;99.90;;;;;;5007548;28;20388;-84
2022/10/26 02:04:46;;;;;;;27.25;24.85;;;17.10;99.90;;;;;;5003734;28;20034;-85
2022/10/26 02:07:12;;;;;;;26.45;24.35;;;17.00;99.90;;;;;;5003559;28;20506;-85
2022/10/26 02:09:51;;;;;;;26.42;24.27;;;17.00;99.90;;;;;;5065461;28;20456;-85
2022/10/26 02:12:52;;;;;;;24.98;22.98;;;17.00;99.90;;;;;;5031740;28;20036;-85
2022/10/26 02:15:22;;;;;;;23.02;21.27;;;17.00;99.90;;;;;;5051906;28;20047;-85
2022/10/26 02:17:56;;;;;;;24.67;22.30;;;17.10;99.90;;;;;;5036092;28;20028;-86
2022/10/26 02:20:32;;;;;;;23.40;21.35;;;17.00;99.90;;;;;;5036880;28;20527;-86
2022/10/26 02:22:59;;;;;;;22.60;20.67;;;17.00;99.90;;;;;;5019697;28;20040;-85
2022/10/26 02:25:31;;;;;;;22.40;20.50;;;17.00;99.90;;;;;;5027156;28;20036;-85
2022/10/26 02:28:08;;;;;;;23.20;21.35;;;17.10;99.90;;;;;;5017714;28;20032;-84
2022/10/26 02:30:35;;;;;;;25.65;23.27;;;17.10;99.90;;;;;;5033715;28;20040;-85
2022/10/26 02:33:01;;;;;;;23.23;21.02;;;17.10;99.90;;;;;;5037576;28;20087;-84
2022/10/26 02:35:30;;;;;;;25.15;22.63;;;17.10;99.90;;;;;;5052594;28;20047;-85
2022/10/26 02:37:58;;;;;;;25.65;23.05;;;17.10;99.90;;;;;;5022317;28;20036;-85
2022/10/26 02:40:26;;;;;;;23.02;20.67;;;17.10;99.90;;;;;;5051647;28;20036;-85
2022/10/26 02:42:52;;;;;;;23.15;21.45;;;17.10;99.90;;;;;;5037476;28;20033;-84
2022/10/26 02:45:30;;;;;;;25.35;22.95;;;17.20;99.90;;;;;;5013736;28;20374;-85
2022/10/26 02:47:56;;;;;;;26.33;22.30;;;17.20;99.90;;;;;;5037701;28;20036;-84
2022/10/26 02:50:28;;;;;;;24.98;21.48;;;17.10;99.90;;;;;;5037578;28;20047;-85
2022/10/26 02:53:30;;;;;;;24.67;22.42;;;17.10;99.90;;;;;;5021635;28;20036;-84
2022/10/26 02:55:56;;;;;;;22.83;20.70;;;17.10;99.90;;;;;;4973456;28;20050;-84
2022/10/26 02:58:24;;;;;;;24.73;22.50;;;17.10;99.90;;;;;;4972859;28;20046;-85
2022/10/26 03:00:51;;;;;;;25.45;23.25;;;17.10;99.90;;;;;;4973086;28;20138;-84
2022/10/26 03:03:17;;;;;;;24.98;22.52;;;17.10;99.90;;;;;;4958274;28;20034;-85
2022/10/26 03:05:43;;;;;;;24.40;22.42;;;17.10;99.90;;;;;;4955800;28;20051;-85
2022/10/26 03:08:09;;;;;;;24.67;22.08;;;17.10;99.90;;;;;;4971460;28;20030;-87
2022/10/26 03:10:41;;;;;;;26.60;24.27;;;17.10;99.90;;;;;;4963018;28;20038;-84
2022/10/26 03:13:07;;;;;;;24.48;21.50;;;17.10;99.90;;;;;;4963482;28;20509;-87
2022/10/26 03:15:34;;;;;;;25.58;23.02;;;17.00;99.90;;;;;;4953209;28;20155;-85
2022/10/26 03:18:00;;;;;;;25.30;22.52;;;16.90;99.90;;;;;;4957448;28;20046;-85
2022/10/26 03:20:26;;;;;;;25.70;23.08;;;16.90;99.90;;;;;;4969754;28;20038;-85
2022/10/26 03:22:52;;;;;;;24.55;22.42;;;16.80;99.90;;;;;;4969813;28;20464;-84
2022/10/26 03:25:18;;;;;;;22.73;20.50;;;16.90;99.90;;;;;;4960735;28;20070;-85
2022/10/26 03:27:44;;;;;;;22.45;20.35;;;16.80;99.90;;;;;;4970506;28;20085;-85
2022/10/26 03:30:10;;;;;;;22.45;20.48;;;16.80;99.90;;;;;;4987343;28;20052;-85
2022/10/26 03:32:37;;;;;;;25.77;21.42;;;16.80;99.90;;;;;;5014909;28;20044;-87
2022/10/26 03:35:03;;;;;;;23.98;21.75;;;16.80;99.90;;;;;;5014066;28;20048;-87
2022/10/26 03:37:29;;;;;;;24.00;21.83;;;16.70;99.90;;;;;;5013716;28;20049;-85
2022/10/26 03:39:55;;;;;;;22.95;20.88;;;16.70;99.90;;;;;;5015935;28;20025;-85
2022/10/26 03:42:22;;;;;;;23.42;21.13;;;16.70;99.90;;;;;;5030321;28;20037;-89
2022/10/26 03:44:48;;;;;;;23.65;21.52;;;16.70;99.90;;;;;;5018227;28;20033;-86
2022/10/26 03:47:14;;;;;;;24.52;21.23;;;16.70;99.90;;;;;;5027646;28;20052;-86
2022/10/26 03:49:40;;;;;;;22.50;20.17;;;16.70;99.90;;;;;;5013265;28;20398;-87
2022/10/26 03:52:06;;;;;;;23.90;21.10;;;16.70;99.90;;;;;;5015124;28;20049;-87
2022/10/26 03:54:32;;;;;;;26.40;20.63;;;16.70;99.90;;;;;;5016489;28;20064;-87
2022/10/26 03:56:59;;;;;;;23.35;21.30;;;16.70;99.90;;;;;;5034713;28;20041;-87
2022/10/26 03:59:25;;;;;;;21.77;19.58;;;16.70;99.90;;;;;;5035193;28;20040;-86
2022/10/26 04:01:51;;;;;;;24.38;19.90;;;16.70;99.90;;;;;;5034289;28;20044;-87
2022/10/26 04:04:17;;;;;;;24.33;21.38;;;16.60;99.90;;;;;;5034333;28;20030;-87
2022/10/26 04:06:43;;;;;;;23.58;21.33;;;16.70;99.90;;;;;;5034090;28;20037;-88
2022/10/26 04:09:09;;;;;;;21.98;19.92;;;16.60;99.90;;;;;;5013341;28;20036;-88
2022/10/26 04:11:35;;;;;;;21.10;19.33;;;16.70;99.90;;;;;;5034334;28;20045;-88
2022/10/26 04:14:01;;;;;;;23.23;21.00;;;16.60;99.90;;;;;;5033321;28;20029;-88
2022/10/26 04:16:27;;;;;;;22.92;20.88;;;16.70;99.90;;;;;;5015681;28;20487;-88
2022/10/26 04:18:53;;;;;;;24.05;21.50;;;16.60;99.90;;;;;;5017963;28;20034;-88
2022/10/26 04:21:19;;;;;;;25.17;21.45;;;16.70;99.90;;;;;;5051147;28;20048;-88
2022/10/26 04:23:46;;;;;;;23.45;21.33;;;16.70;99.90;;;;;;5041675;28;20056;-88
2022/10/26 04:26:12;;;;;;;23.40;20.95;;;16.60;99.90;;;;;;5021201;28;20052;-87
2022/10/26 04:28:38;;;;;;;23.45;20.95;;;16.70;99.90;;;;;;5036271;28;20041;-88
2022/10/26 04:31:04;;;;;;;23.92;21.45;;;16.60;99.90;;;;;;5036565;28;20423;-88
2022/10/26 04:33:30;;;;;;;24.25;21.85;;;16.50;99.90;;;;;;5037504;28;20470;-88
2022/10/26 04:36:02;;;;;;;24.17;22.02;;;16.40;99.90;;;;;;5037105;28;20053;-88
2022/10/26 04:38:28;;;;;;;23.15;20.75;;;16.30;99.90;;;;;;5035739;28;20044;-88
2022/10/26 04:40:54;;;;;;;26.98;22.60;;;16.20;99.90;;;;;;5020683;28;20044;-88
2022/10/26 04:43:20;;;;;;;23.83;21.42;;;16.20;99.90;;;;;;5021152;28;20512;-89
2022/10/26 04:45:46;;;;;;;29.83;27.20;;;16.10;99.90;;;;;;5037031;28;20048;-88
2022/10/26 04:48:13;;;;;;;25.92;24.08;;;16.20;99.90;;;;;;5019877;28;20466;-87
2022/10/26 04:50:39;;;;;;;26.38;24.30;;;16.10;99.90;;;;;;5020825;28;20045;-88
2022/10/26 04:53:06;;;;;;;26.33;24.15;;;16.10;99.90;;;;;;5037424;28;20025;-88
2022/10/26 04:55:32;;;;;;;26.42;23.92;;;16.10;99.90;;;;;;5001319;28;20187;-87
2022/10/26 04:57:58;;;;;;;26.63;24.13;;;16.10;99.90;;;;;;5053575;28;20025;-88
2022/10/26 05:00:25;;;;;;;25.08;23.23;;;16.10;99.90;;;;;;5053693;28;20033;-89
2022/10/26 05:02:51;;;;;;;25.02;22.75;;;16.10;99.90;;;;;;5053695;28;20033;-88
2022/10/26 05:05:17;;;;;;;24.88;22.55;;;16.10;99.90;;;;;;5019632;28;20037;-89
2022/10/26 05:07:43;;;;;;;24.30;22.13;;;16.00;99.90;;;;;;5036259;28;20195;-88
2022/10/26 05:10:11;;;;;;;21.50;19.67;;;16.00;99.90;;;;;;5017950;28;20071;-88
2022/10/26 05:12:37;;;;;;;24.10;20.90;;;15.90;99.90;;;;;;5033857;28;20041;-88
2022/10/26 05:15:04;;;;;;;23.40;21.10;;;15.80;99.90;;;;;;5040834;28;20032;-89
2022/10/26 05:17:30;;;;;;;24.15;22.30;;;15.70;99.90;;;;;;5053111;28;20039;-86
2022/10/26 05:19:57;;;;;;;26.23;23.95;;;15.70;99.90;;;;;;5037215;28;20029;-88
2022/10/26 05:22:24;;;;;;;25.65;23.63;;;15.80;99.90;;;;;;5019703;28;20037;-89
2022/10/26 05:24:50;;;;;;;27.25;25.20;;;15.80;99.90;;;;;;5036610;28;20060;-88
2022/10/26 05:27:16;;;;;;;30.33;28.00;;;15.70;99.90;;;;;;5036291;28;20025;-89
2022/10/26 05:29:42;;;;;;;30.45;28.33;;;15.80;99.90;;;;;;5054424;28;20029;-88
2022/10/26 05:32:08;;;;;;;33.15;30.13;;;15.80;99.90;;;;;;5036268;28;20497;-87
2022/10/26 05:34:34;;;;;;;33.90;31.05;;;15.80;99.90;;;;;;5035950;28;20037;-89
2022/10/26 05:37:00;;;;;;;31.20;29.02;;;15.80;99.90;;;;;;5051415;28;20041;-85
2022/10/26 05:39:26;;;;;;;29.60;27.15;;;15.90;99.90;;;;;;5051490;28;20040;-85
2022/10/26 05:41:52;;;;;;;32.20;29.77;;;15.80;99.90;;;;;;5034574;28;20045;-84
2022/10/26 05:44:18;;;;;;;27.92;25.58;;;15.80;99.90;;;;;;5034698;28;20037;-83
2022/10/26 05:46:46;;;;;;;29.30;27.02;;;15.70;99.90;;;;;;5034676;28;20041;-83
2022/10/26 05:49:12;;;;;;;31.88;28.75;;;15.60;99.90;;;;;;5019678;28;20047;-84
2022/10/26 05:51:38;;;;;;;33.22;30.42;;;15.60;99.90;;;;;;5035042;28;20394;-86
2022/10/26 05:54:04;;;;;;;34.55;31.92;;;15.70;99.90;;;;;;5035822;28;20056;-84
2022/10/26 05:56:38;;;;;;;32.03;29.70;;;15.70;99.90;;;;;;5049835;28;20052;-87
2022/10/26 05:59:14;;;;;;;27.10;24.38;;;15.60;99.90;;;;;;5026557;28;20041;-84
2022/10/26 06:02:10;;;;;;;27.98;25.80;;;15.60;99.90;;;;;;5035851;28;20033;-83
2022/10/26 06:04:42;;;;;;;30.90;28.10;;;15.60;99.90;;;;;;5037920;28;20036;-84
2022/10/26 06:07:13;;;;;;;29.83;27.40;;;15.60;99.90;;;;;;5034546;28;20032;-85
2022/10/26 06:09:39;;;;;;;32.13;29.60;;;15.60;99.90;;;;;;5039076;28;20029;-91
2022/10/26 06:12:06;;;;;;;29.00;26.50;;;15.50;99.90;;;;;;5048912;28;20025;-82
2022/10/26 06:14:33;;;;;;;26.75;24.73;;;15.40;99.90;;;;;;5134051;22;20045;-90
2022/10/26 06:17:03;;;;;;;25.27;23.25;;;15.50;99.90;;;;;;5041924;28;20037;-87
2022/10/26 06:20:07;;;;;;;31.00;27.92;;;15.50;99.90;;;;;;5049965;28;20040;-86
2022/10/26 06:22:57;;;;;;;27.13;25.05;;;15.40;99.90;;;;;;5060858;28;20381;-85
2022/10/26 06:25:48;;;;;;;28.33;25.80;;;15.50;99.90;;;;;;5071683;28;20064;-87
2022/10/26 06:28:39;;;;;;;20.50;18.40;;;15.50;99.90;;;;;;5056339;28;20043;-86
2022/10/26 06:31:05;;;;;;;20.50;18.50;;;15.60;99.90;;;;;;5056033;28;20041;-84
2022/10/26 06:33:31;;;;;;;26.08;23.63;;;15.60;99.90;;;;;;5054887;28;20020;-86
2022/10/26 06:36:25;;;;;;;28.88;26.90;;;15.50;99.90;;;;;;5066093;28;20046;-85
2022/10/26 06:39:01;;;;;;;31.67;28.95;;;15.60;99.90;;;;;;5085444;28;20036;-86
2022/10/26 06:41:27;;;;;;;28.88;26.10;;;15.60;99.90;;;;;;5048420;28;20037;-90
2022/10/26 06:43:53;;;;;;;29.48;27.15;;;15.50;99.90;;;;;;5069512;28;20034;-86
2022/10/26 06:46:30;;;;;;;27.27;25.40;;;15.40;99.90;;;;;;5067712;28;20042;-89
2022/10/26 06:49:14;;;;;;;29.10;27.08;;;15.30;99.90;;;;;;5065945;28;20028;-85
2022/10/26 06:51:51;;;;;;;31.45;28.95;;;15.30;99.90;;;;;;5053249;28;20025;-93
2022/10/26 06:54:17;;;;;;;26.23;23.80;;;15.30;99.90;;;;;;5065237;28;20503;-91
2022/10/26 06:56:43;;;;;;;30.55;27.75;;;15.20;99.90;;;;;;5098172;28;20469;-93
2022/10/26 06:59:15;;;;;;;27.23;24.60;;;15.10;99.90;;;;;;5094456;28;20020;-93
2022/10/26 07:01:41;;;;;;;26.52;24.45;;;15.10;99.90;;;;;;5060301;28;20500;-93
2022/10/26 07:04:07;;;;;;;27.25;25.13;;;15.00;99.90;;;;;;5073139;28;20017;-90
2022/10/26 07:06:33;;;;;;;26.40;23.92;;;15.20;99.90;;;;;;5057612;28;20496;-90
2022/10/26 07:08:59;;;;;;;26.25;24.05;;;15.40;99.90;;;;;;5051538;28;20029;-93
2022/10/26 07:11:25;;;;;;;24.98;18.45;;;15.30;99.90;;;;;;5047633;28;20485;-93
2022/10/26 07:13:52;;;;;;;21.30;19.35;;;15.40;99.90;;;;;;5054785;28;20045;-91
2022/10/26 07:16:18;;;;;;;19.63;17.92;;;15.20;99.90;;;;;;5061451;28;20413;-92
2022/10/26 07:18:44;;;;;;;22.50;20.45;;;15.30;99.90;;;;;;5060148;28;20036;-92
2022/10/26 07:21:10;;;;;;;19.95;17.95;;;15.50;99.90;;;;;;5062832;28;20029;-92
2022/10/26 07:23:36;;;;;;;20.42;18.40;;;15.50;99.90;;;;;;5069687;28;20033;-92
2022/10/26 07:26:02;;;;;;;20.92;19.00;;;15.60;99.90;;;;;;5054863;28;20029;-91
2022/10/26 07:28:28;;;;;;;25.55;19.90;;;15.60;99.90;;;;;;5044602;28;20800;-92
2022/10/26 07:30:54;;;;;;;23.92;19.02;;;15.70;99.90;;;;;;5038759;28;20032;-94
2022/10/26 07:33:21;;;;;;;25.50;23.05;;;15.60;99.90;;;;;;5042943;28;20025;-91
2022/10/26 07:35:47;;;;;;;28.52;26.10;;;15.60;99.90;;;;;;5063519;28;20044;-94
2022/10/26 07:38:13;;;;;;;21.88;16.98;;;15.70;99.90;;;;;;5057473;28;20021;-93
2022/10/26 07:40:39;;;;;;;20.00;18.23;;;15.80;99.90;;;;;;5073406;28;20035;-90
2022/10/26 07:43:05;;;;;;;20.00;18.20;;;15.70;99.90;;;;;;5073524;28;20056;-90
2022/10/26 07:45:31;;;;;;;17.67;15.98;;;16.00;99.90;;;;;;5072444;28;20033;-91
2022/10/26 07:47:57;;;;;;;24.98;22.85;;;16.20;99.90;;;;;;5048420;28;20493;-90
2022/10/26 07:50:24;;;;;;;20.42;18.30;;;16.60;99.90;;;;;;5058792;28;20025;-90
2022/10/26 07:52:50;;;;;;;20.48;18.70;;;16.80;99.90;;;;;;5050904;28;20037;-92
2022/10/26 07:55:16;;;;;;;17.10;15.70;;;16.80;99.90;;;;;;5065805;28;20377;-89
2022/10/26 07:57:42;;;;;;;18.92;17.17;;;17.00;99.90;;;;;;5047665;28;20505;-93
2022/10/26 08:00:09;;;;;;;22.08;19.95;;;17.30;99.90;;;;;;5017688;28;20037;-90
2022/10/26 08:02:36;;;;;;;21.30;19.20;;;17.70;99.90;;;;;;5038160;28;20617;-83
2022/10/26 08:05:02;;;;;;;17.75;16.17;;;18.00;99.90;;;;;;5050452;28;20616;-83
2022/10/26 08:07:28;;;;;;;18.35;16.73;;;18.20;99.90;;;;;;5050746;28;20517;-87
2022/10/26 08:09:54;;;;;;;18.88;17.08;;;18.20;99.90;;;;;;5033395;28;20057;-88
2022/10/26 08:12:20;;;;;;;20.45;18.55;;;18.10;99.90;;;;;;5025215;28;20100;-87
2022/10/26 08:14:47;;;;;;;18.77;17.02;;;18.30;99.90;;;;;;5043884;28;20044;-87
2022/10/26 08:17:13;;;;;;;18.23;16.80;;;18.60;99.90;;;;;;5049454;28;20048;-86
2022/10/26 08:19:39;;;;;;;20.77;18.85;;;18.80;99.90;;;;;;5018584;28;20056;-88
2022/10/26 08:22:05;;;;;;;20.88;18.95;;;19.00;99.90;;;;;;5035236;28;20040;-83
2022/10/26 08:24:31;;;;;;;25.38;23.50;;;18.80;99.90;;;;;;5060897;28;20485;-84
2022/10/26 08:26:57;;;;;;;25.65;23.58;;;18.60;99.90;;;;;;5032990;28;20048;-85
2022/10/26 08:29:23;;;;;;;24.20;22.40;;;18.30;99.90;;;;;;5051497;28;20060;-85
2022/10/26 08:31:49;;;;;;;23.92;22.10;;;18.10;99.90;;;;;;5061777;28;20032;-89
2022/10/26 08:34:15;;;;;;;21.90;20.38;;;18.00;99.90;;;;;;5050744;28;20044;-91
2022/10/26 08:36:42;;;;;;;23.45;20.92;;;18.10;99.90;;;;;;5054271;28;20044;-89
2022/10/26 08:39:08;;;;;;;22.48;20.63;;;18.00;99.90;;;;;;5057713;28;20195;-89
2022/10/26 08:41:42;;;;;;;23.33;21.52;;;17.90;99.90;;;;;;5082589;28;20047;-92
2022/10/26 08:44:28;;;;;;;27.25;25.05;;;17.80;99.90;;;;;;5065780;28;20039;-94
2022/10/26 08:46:57;;;;;;;25.33;23.23;;;17.90;99.90;;;;;;5071069;28;20037;-94
2022/10/26 08:49:30;;;;;;;22.70;20.88;;;18.00;99.90;;;;;;5079117;28;20029;-90
2022/10/26 08:52:00;;;;;;;22.40;20.25;;;18.00;99.90;;;;;;5062964;28;20036;-94
2022/10/26 08:54:32;;;;;;;24.63;22.73;;;18.10;99.90;;;;;;5039933;28;20037;-90
2022/10/26 08:56:59;;;;;;;24.30;22.00;;;18.10;99.90;;;;;;5072859;28;20041;-87
2022/10/26 09:00:00;;;;;;;25.60;23.48;;;18.20;99.90;;;;;;5051660;28;20032;-88
2022/10/26 09:02:26;;;;;;;25.10;22.90;;;18.30;99.90;;;;;;4973726;28;20045;-86
2022/10/26 09:04:52;;;;;;;26.98;24.63;;;18.30;99.90;;;;;;4958410;28;20030;-87
2022/10/26 09:07:46;;;;;;;21.77;20.17;;;18.30;99.90;;;;;;4971823;28;20037;-89
2022/10/26 09:10:12;;;;;;;24.60;22.45;;;18.40;99.90;;;;;;4984169;28;20486;-91
2022/10/26 09:13:14;;;;;;;20.55;18.63;;;18.50;99.90;;;;;;4978812;28;20054;-89
2022/10/26 09:15:51;;;;;;;20.95;19.33;;;18.50;99.90;;;;;;4960746;28;20565;-93
2022/10/26 09:18:37;;;;;;;24.02;21.75;;;18.50;99.90;;;;;;4983069;28;20542;-89
2022/10/26 09:21:24;;;;;;;22.88;21.00;;;18.40;99.90;;;;;;4989254;28;20027;-88
2022/10/26 09:24:06;;;;;;;21.08;19.45;;;18.40;99.90;;;;;;4976054;28;20042;-87
2022/10/26 09:26:41;;;;;;;21.13;18.95;;;18.40;99.90;;;;;;4992416;28;20045;-90
2022/10/26 09:29:11;;;;;;;23.02;20.55;;;18.60;99.90;;;;;;4961403;28;20031;-84
2022/10/26 09:31:55;;;;;;;20.75;18.85;;;18.70;99.90;;;;;;4973902;28;20030;-82
2022/10/26 09:34:34;;;;;;;19.98;17.80;;;18.80;99.90;;;;;;4960910;28;20038;-84
2022/10/26 09:37:00;;;;;;;20.45;18.92;;;18.90;99.90;;;;;;4975183;28;20058;-87
2022/10/26 09:39:58;;;;;;;21.88;20.02;;;19.00;99.90;;;;;;5039287;28;20021;-85
2022/10/26 09:42:43;;;;;;;20.65;19.00;;;19.10;99.90;;;;;;5029413;28;20389;-86
2022/10/26 09:45:28;;;;;;;19.35;17.65;;;19.20;99.90;;;;;;5049187;28;20474;-89
2022/10/26 09:47:57;;;;;;;20.02;18.35;;;19.30;99.90;;;;;;5057424;28;20022;-86
2022/10/26 09:50:31;;;;;;;20.85;19.38;;;19.20;99.60;;;;;;5052419;28;20064;-89
2022/10/26 09:52:57;;;;;;;18.38;16.48;;;19.20;99.70;;;;;;5046795;28;20043;-85
2022/10/26 09:55:23;;;;;;;19.52;17.70;;;19.20;99.40;;;;;;5071599;28;20040;-90
2022/10/26 09:57:57;;;;;;;21.13;19.38;;;19.10;99.90;;;;;;5025815;28;20485;-90
2022/10/26 10:00:24;;;;;;;18.58;16.85;;;19.10;99.90;;;;;;5021750;28;20056;-89
2022/10/26 10:02:57;;;;;;;20.30;18.52;;;19.20;99.90;;;;;;5032213;28;20036;-91
2022/10/26 10:05:26;;;;;;;19.33;17.58;;;19.20;99.90;;;;;;5060917;28;20025;-91
2022/10/26 10:08:13;;;;;;;20.00;18.40;;;19.30;99.90;;;;;;5071032;28;20076;-89
2022/10/26 10:10:58;;;;;;;19.33;17.90;;;19.30;99.90;;;;;;5036580;28;20052;-89
2022/10/26 10:13:38;;;;;;;19.52;18.10;;;19.40;99.90;;;;;;5054941;28;20024;-90
2022/10/26 10:16:19;;;;;;;19.25;17.50;;;19.50;99.90;;;;;;5047061;28;20040;-87
2022/10/26 10:18:52;;;;;;;18.80;17.05;;;19.50;99.80;;;;;;5055162;28;20040;-89
2022/10/26 10:21:18;;;;;;;19.25;17.70;;;19.60;99.70;;;;;;5039375;28;20037;-87
2022/10/26 10:23:51;;;;;;;17.90;16.45;;;19.60;99.90;;;;;;5030383;28;20037;-89
2022/10/26 10:26:17;;;;;;;18.25;16.52;;;19.60;99.90;;;;;;5053562;28;20504;-91
2022/10/26 10:28:43;;;;;;;16.33;14.93;;;19.70;99.40;;;;;;5053343;28;20485;-92
2022/10/26 10:31:26;;;;;;;17.27;15.65;;;19.80;99.20;;;;;;5045600;28;20043;-88
2022/10/26 10:33:53;;;;;;;18.17;16.58;;;19.90;99.20;;;;;;5041452;28;20037;-93
2022/10/26 10:36:20;;;;;;;17.60;16.33;;;20.00;98.90;;;;;;5048776;28;20024;-92
2022/10/26 10:38:50;;;;;;;17.45;16.15;;;20.00;98.70;;;;;;5052406;28;20032;-87
2022/10/26 10:41:27;;;;;;;17.60;16.27;;;20.10;98.70;;;;;;5049930;28;20481;-90
2022/10/26 10:44:21;;;;;;;19.83;18.08;;;20.20;98.40;;;;;;5028019;28;20302;-92
2022/10/26 10:46:47;;;;;;;19.88;18.35;;;20.20;98.00;;;;;;5055629;28;20029;-93
2022/10/26 10:49:24;;;;;;;20.60;18.90;;;20.30;97.70;;;;;;5026041;28;20052;-92
2022/10/26 10:51:50;;;;;;;21.38;19.90;;;20.30;97.70;;;;;;5054491;28;20381;-92
2022/10/26 10:54:37;;;;;;;20.27;18.95;;;20.30;97.40;;;;;;5046031;28;20037;-93
2022/10/26 10:57:13;;;;;;;24.42;22.50;;;20.40;97.00;;;;;;5053382;28;20498;-93
2022/10/26 11:00:08;;;;;;;22.05;20.58;;;20.40;96.40;;;;;;5054597;28;20024;-89
2022/10/26 11:02:46;;;;;;;21.27;19.50;;;20.40;96.30;;;;;;5065089;28;20040;-83
2022/10/26 11:05:35;;;;;;;19.13;17.70;;;20.40;96.20;;;;;;5069463;28;20037;-82
2022/10/26 11:08:11;;;;;;;23.38;21.77;;;20.50;96.10;;;;;;5069007;28;20021;-83
2022/10/26 11:10:40;;;;;;;21.52;19.77;;;20.50;96.20;;;;;;5069827;28;20021;-84
2022/10/26 11:13:15;;;;;;;22.92;21.30;;;20.50;96.00;;;;;;5034688;28;20036;-84
2022/10/26 11:15:43;;;;;;;20.75;19.30;;;20.50;95.60;;;;;;5052646;28;20409;-84
2022/10/26 11:18:18;;;;;;;24.40;22.55;;;20.60;96.10;;;;;;5047194;28;20048;-83
2022/10/26 11:21:21;;;;;;;23.67;21.98;;;20.60;95.90;;;;;;5057205;28;20032;-84
2022/10/26 11:24:18;;;;;;;25.08;23.25;;;20.60;95.30;;;;;;5058812;28;20040;-82
2022/10/26 11:26:47;;;;;;;23.63;21.83;;;20.70;95.00;;;;;;5071860;28;20039;-83
2022/10/26 11:29:21;;;;;;;22.35;20.65;;;20.70;95.10;;;;;;5078846;28;20051;-83
2022/10/26 11:31:53;;;;;;;22.00;20.60;;;20.70;95.30;;;;;;5056356;28;20025;-83
2022/10/26 11:34:39;;;;;;;28.67;26.83;;;20.80;95.50;;;;;;5055981;28;20028;-82
2022/10/26 11:37:22;;;;;;;22.98;21.55;;;20.90;95.30;;;;;;5061841;28;20040;-82
2022/10/26 11:40:04;;;;;;;23.73;22.10;;;21.00;95.20;;;;;;5065863;28;20020;-83
2022/10/26 11:42:41;;;;;;;26.88;24.85;;;21.00;95.20;;;;;;5079916;28;20397;-83
2022/10/26 11:45:09;;;;;;;29.65;27.48;;;21.00;95.00;;;;;;5045198;28;20041;-83
2022/10/26 11:47:39;;;;;;;31.13;28.92;;;21.00;94.60;;;;;;5078837;28;20039;-83
2022/10/26 11:50:26;;;;;;;29.98;28.17;;;21.10;94.40;;;;;;5038904;28;20033;-85
2022/10/26 11:52:52;;;;;;;27.67;26.10;;;21.10;94.10;;;;;;5056390;28;20382;-84
2022/10/26 11:55:18;;;;;;;26.80;25.25;;;21.10;93.20;;;;;;5060319;28;20033;-86
2022/10/26 11:57:45;;;;;;;28.10;26.38;;;21.20;92.80;;;;;;5034348;28;20041;-86
2022/10/26 12:00:12;;;;;;;29.65;27.88;;;21.20;93.10;;;;;;5037942;28;20104;-86
2022/10/26 12:02:40;;;;;;;28.63;26.88;;;21.20;92.90;;;;;;5052117;28;20028;-88
2022/10/26 12:05:18;;;;;;;29.15;27.15;;;21.20;92.50;;;;;;5033274;28;20041;-88
2022/10/26 12:07:51;;;;;;;28.65;26.88;;;21.30;92.50;;;;;;5050571;28;20044;-87
2022/10/26 12:10:33;;;;;;;27.75;25.73;;;21.30;92.30;;;;;;5033538;28;20052;-88
2022/10/26 12:13:18;;;;;;;27.42;25.85;;;21.40;92.20;;;;;;5024028;28;20041;-87
2022/10/26 12:15:47;;;;;;;30.23;27.98;;;21.40;91.90;;;;;;5076011;28;20056;-85
2022/10/26 12:18:16;;;;;;;28.38;26.67;;;21.50;92.40;;;;;;5065671;28;20408;-86
2022/10/26 12:20:45;;;;;;;31.15;29.02;;;21.50;92.10;;;;;;5060827;28;20047;-87
2022/10/26 12:23:11;;;;;;;32.65;30.85;;;21.50;92.00;;;;;;5057008;28;20044;-86
2022/10/26 12:25:37;;;;;;;31.70;30.08;;;21.60;91.60;;;;;;5041234;28;20024;-86
2022/10/26 12:28:03;;;;;;;32.30;30.17;;;21.60;91.30;;;;;;5057045;28;20037;-86
2022/10/26 12:30:31;;;;;;;35.78;33.65;;;21.60;91.60;;;;;;5044813;28;20051;-85
2022/10/26 12:33:02;;;;;;;36.40;34.20;;;21.60;91.60;;;;;;5044038;28;20384;-86
2022/10/26 12:35:44;;;;;;;35.88;33.78;;;21.70;91.20;;;;;;5057223;28;20467;-85
2022/10/26 12:38:27;;;;;;;38.33;36.40;;;21.70;90.80;;;;;;5056852;28;20041;-86
2022/10/26 12:41:20;;;;;;;37.58;35.72;;;21.80;90.30;;;;;;5056877;28;20039;-86
2022/10/26 12:43:46;;;;;;;40.78;38.60;;;22.00;88.40;;;;;;5049621;28;20410;-86
2022/10/26 12:46:12;;;;;;;40.78;38.55;;;22.10;88.50;;;;;;5075954;28;20037;-86
2022/10/26 12:48:48;;;;;;;48.60;45.88;;;22.20;88.00;;;;;;5076329;28;20075;-86